EDDSELLX

Guest
Details From EDDS - Stuttgart
To ELLX - Luxembourg
Flight Number -
Tags Generated
Created
Modified
Stats Distance 131 nm / 242 km
Max Altitude 0 ft / 0 m
Waypoints 2
Social Downloads 4
Likes 0
Share VATSIM

Download

Looking for another format? Having issues loading an existing format? Contact us
Advertisement - Login to hide

Notes

Generated

Route

EDDS ELLX

ID Type Via Altitude Latitude Longitude Leg Dist Tot Dist Heading (true) Name
O EDDS APT - 0 ft / 0 m 48.68573˚ 9.20013˚ - 0 nm - -
O ELLX APT - 0 ft / 0 m 49.61767˚ 6.18746˚ 130 nm 130 nm 296° / 294° -

Altitude Profile

Advertisement - Login to hide

EDDS

Details ICAO EDDS (STR)
Name Stuttgart
Region Germany - Civil
Timezone Europe/Berlin (UTC+1.0)
Stats Elevation 1,273 ft / 388 m (AMSL)
Location 48.689876° 9.221962°
Runways 1
Magnetic Variation 2.522° E

METAR

EDDS 120620Z 27018KT 9999 FEW024 BKN033 03/M02 Q1004 NOSIG

Decode

TAF

TAF EDDS 120500Z 1206/1306 23015G25KT 9999 SCT035 TEMPO 1206/1210 26020G35KT BECMG 1209/1212 23011KT BECMG 1220/1223 VRB03KT

Decode

Departure Runways

ID Width Length Bearing (true) Bearing (mag) Surface Threshold Offset Overrun Length
07 148 ft / 45 m 10,950 ft / 3,337 m 73.96° 71.44° Concrete 981 ft / 299 m 157 ft / 48 m
25 148 ft / 45 m 10,950 ft / 3,337 m 253.99° 251.47° Concrete 0 ft / 0 m 157 ft / 48 m

ELLX

Details ICAO ELLX (LUX)
Name Luxembourg
Region Luxembourg
Timezone Europe/Luxembourg (UTC+1.0)
Stats Elevation 1,158 ft / 353 m (AMSL)
Location 49.626599° 6.211506°
Runways 1
Magnetic Variation 1.689° E

METAR

ELLX 120620Z 27010KT 9999 -SHSN SCT009 SCT016 BKN026 01/M00 Q1003 NOSIG

Decode

TAF

TAF TAF ELLX 120500Z 1206/1312 26015KT 9999 BKN015 TEMPO 1206/1218 2500 -SHSN -SHSNRA SCT002 BKN010TCU BECMG 1218/1221 20010KT TEMPO 1221/1306 2000 BR BKN003 PROB40 TEMPO 1302/1306 0300 FZFG BKN001 BECMG 1306/1309 19012G25KT TEMPO 1306/1312 0700 SN OVC002

Decode

Destination Runways

ID Width Length Bearing (true) Bearing (mag) Surface Threshold Offset Overrun Length
06 197 ft / 60 m 13,135 ft / 4,004 m 60.14° 58.45° Asphalt 0 ft / 0 m 0 ft / 0 m
24 197 ft / 60 m 13,135 ft / 4,004 m 240.18° 238.49° Asphalt 0 ft / 0 m 180 ft / 55 m

Approach Navaids

Runway Type Ident Frequency Range Bearing (true) Bearing (mag) Slope Elevation
06 Localiser ILE 109.90 MHz 18 nm / 33 km 60.21° 58.52° - 1,158 ft / 353 m (AMSL)
06 Glidescope ILE 109.90 MHz 10 nm / 19 km 60.16° 58.47° 3.00° 1,158 ft / 353 m (AMSL)
06 DME ILE 109.90 MHz 18 nm / 33 km - - - 1,158 ft / 353 m (AMSL)
24 Localiser ILW 110.70 MHz 18 nm / 33 km 239.94° 238.25° - 1,158 ft / 353 m (AMSL)
24 Glidescope ILW 110.70 MHz 10 nm / 19 km 240.16° 238.47° 3.00° 1,158 ft / 353 m (AMSL)
24 DME ILW 110.70 MHz 18 nm / 33 km - - - 1,158 ft / 353 m (AMSL)

Popular Alternatives